Time;durP1;ratioP1;P1;durP2;ratioP2;P2;SDS_P1;SDS_P2;PMS_P1;PMS_P2;Temp;Humidity;BMP_temperature;BMP_pressure;BME280_temperature;BME280_humidity;BME280_pressure;Samples;Min_cycle;Max_cycle;Signal;HPM_P1;HPM_P2
2023/07/05 00:00:40;;;;;;;6.53;4.00;;;16.60;99.90;;;;;;5042955;28;20206;-59
2023/07/05 00:03:07;;;;;;;7.00;4.30;;;16.60;99.90;;;;;;5043265;28;20361;-60
2023/07/05 00:05:36;;;;;;;7.87;3.83;;;16.70;99.90;;;;;;5027058;28;20200;-59
2023/07/05 00:08:04;;;;;;;8.40;4.53;;;16.70;99.90;;;;;;5045325;28;20625;-59
2023/07/05 00:10:31;;;;;;;7.50;4.40;;;16.70;99.90;;;;;;5043389;28;20227;-59
2023/07/05 00:12:59;;;;;;;8.57;4.57;;;16.70;99.90;;;;;;5043177;28;20204;-59
2023/07/05 00:15:27;;;;;;;6.83;3.80;;;16.80;99.90;;;;;;5045122;28;20560;-59
2023/07/05 00:17:54;;;;;;;4.87;3.43;;;16.90;99.90;;;;;;5047265;28;20270;-58
2023/07/05 00:20:22;;;;;;;4.80;3.33;;;16.80;99.90;;;;;;5045143;28;20707;-59
2023/07/05 00:22:51;;;;;;;5.60;3.57;;;16.80;99.90;;;;;;5044379;28;20221;-59
2023/07/05 00:25:18;;;;;;;6.27;3.30;;;16.80;99.90;;;;;;5045032;28;20192;-59
2023/07/05 00:27:45;;;;;;;6.23;3.40;;;16.70;99.90;;;;;;5043907;28;20212;-59
2023/07/05 00:30:12;;;;;;;5.30;3.20;;;16.70;99.90;;;;;;5045268;28;20207;-61
2023/07/05 00:32:39;;;;;;;6.03;3.10;;;16.60;99.90;;;;;;5047015;28;20227;-60
2023/07/05 00:35:07;;;;;;;6.93;3.67;;;16.70;99.90;;;;;;5046262;28;20207;-60
2023/07/05 00:37:34;;;;;;;7.00;3.70;;;16.70;99.90;;;;;;5045497;28;20215;-60
2023/07/05 00:40:00;;;;;;;5.40;2.90;;;16.50;99.90;;;;;;5027996;28;20196;-60
2023/07/05 00:42:27;;;;;;;4.60;3.07;;;16.50;99.90;;;;;;5028888;28;20204;-61
2023/07/05 00:45:09;;;;;;;3.20;2.70;;;16.50;99.90;;;;;;5042069;28;20237;-61
2023/07/05 00:47:39;;;;;;;4.57;2.77;;;16.60;99.90;;;;;;5022600;28;20240;-60
2023/07/05 00:50:21;;;;;;;4.67;2.83;;;16.70;99.90;;;;;;5045153;28;20237;-61
2023/07/05 00:52:49;;;;;;;3.30;2.87;;;16.70;99.90;;;;;;5026076;28;20634;-60
2023/07/05 00:55:17;;;;;;;6.37;2.80;;;16.60;99.90;;;;;;5041198;28;20207;-60
2023/07/05 00:57:46;;;;;;;3.73;2.63;;;16.70;99.90;;;;;;5046402;28;20266;-60
2023/07/05 01:00:20;;;;;;;5.03;2.53;;;16.60;99.90;;;;;;5039777;28;20725;-60
2023/07/05 01:02:52;;;;;;;4.47;2.70;;;16.50;99.90;;;;;;5039951;28;20199;-60
2023/07/05 01:05:19;;;;;;;4.40;2.73;;;16.50;99.90;;;;;;5043421;28;22715;-59
2023/07/05 01:07:47;;;;;;;4.50;2.70;;;16.50;99.90;;;;;;5043462;28;20303;-60
2023/07/05 01:10:24;;;;;;;4.20;2.63;;;16.50;99.90;;;;;;5043362;28;20246;-60
2023/07/05 01:13:04;;;;;;;6.53;2.70;;;16.40;99.90;;;;;;5041212;28;20258;-60
2023/07/05 01:15:52;;;;;;;7.27;2.77;;;16.50;99.90;;;;;;5044774;28;20215;-60
2023/07/05 01:18:25;;;;;;;4.27;2.63;;;16.50;99.90;;;;;;5045102;28;20213;-61
2023/07/05 01:21:37;;;;;;;3.63;2.53;;;16.50;99.90;;;;;;5040745;28;20248;-61
2023/07/05 01:24:32;;;;;;;4.83;2.57;;;16.40;99.90;;;;;;5042362;28;20206;-62
2023/07/05 01:27:26;;;;;;;6.07;2.43;;;16.50;99.90;;;;;;5042221;28;20196;-61
2023/07/05 01:29:53;;;;;;;2.97;2.40;;;16.50;99.90;;;;;;5027100;28;20258;-60
2023/07/05 01:32:29;;;;;;;5.23;3.30;;;16.50;99.90;;;;;;5044037;28;20208;-60
2023/07/05 01:35:04;;;;;;;7.23;2.90;;;16.40;99.90;;;;;;5042866;28;20663;-60
2023/07/05 01:37:36;;;;;;;3.57;2.37;;;16.40;99.90;;;;;;5042549;28;20241;-60
2023/07/05 01:40:36;;;;;;;3.43;2.10;;;16.40;99.90;;;;;;5042210;28;20285;-60
2023/07/05 01:43:10;;;;;;;3.23;2.10;;;16.30;99.90;;;;;;5026513;28;20233;-59
2023/07/05 01:45:46;;;;;;;3.37;2.27;;;16.30;99.90;;;;;;5042522;28;20237;-60
2023/07/05 01:48:34;;;;;;;3.80;2.20;;;16.40;99.90;;;;;;5045677;28;20217;-59
2023/07/05 01:51:23;;;;;;;3.67;2.40;;;16.40;99.90;;;;;;5041939;28;20679;-59
2023/07/05 01:54:04;;;;;;;2.47;2.10;;;16.40;99.90;;;;;;5034583;28;20211;-59
2023/07/05 01:56:39;;;;;;;3.00;1.93;;;16.40;99.90;;;;;;5012992;28;20217;-59
2023/07/05 01:59:09;;;;;;;2.80;2.10;;;16.40;99.90;;;;;;5037032;28;20560;-59
2023/07/05 02:01:38;;;;;;;3.13;2.37;;;16.40;99.90;;;;;;5021274;28;20294;-59
2023/07/05 02:04:06;;;;;;;3.47;2.17;;;16.30;99.90;;;;;;5022180;28;20752;-59
2023/07/05 02:06:35;;;;;;;3.87;1.97;;;16.40;99.90;;;;;;5040056;28;20290;-59
2023/07/05 02:09:02;;;;;;;4.37;1.97;;;16.30;99.90;;;;;;5041348;28;20240;-59
2023/07/05 02:11:28;;;;;;;4.67;2.17;;;16.30;99.90;;;;;;5039000;28;20204;-59
2023/07/05 02:13:56;;;;;;;2.47;1.90;;;16.20;99.90;;;;;;5017990;28;20204;-60
2023/07/05 02:16:23;;;;;;;2.70;1.90;;;16.00;99.90;;;;;;5042288;28;20211;-59
2023/07/05 02:18:50;;;;;;;3.40;1.87;;;16.00;99.90;;;;;;5022609;28;20201;-60
2023/07/05 02:21:17;;;;;;;2.80;2.07;;;15.90;99.90;;;;;;5041307;28;20685;-59
2023/07/05 02:23:44;;;;;;;2.50;2.30;;;15.80;99.90;;;;;;5032556;28;20220;-59
2023/07/05 02:26:11;;;;;;;3.77;2.40;;;15.80;99.90;;;;;;5043039;28;20203;-60
2023/07/05 02:28:38;;;;;;;3.47;2.40;;;15.60;99.90;;;;;;5024360;28;20678;-59
2023/07/05 02:31:06;;;;;;;3.37;2.80;;;15.40;99.90;;;;;;5041664;28;20223;-59
2023/07/05 02:33:37;;;;;;;3.60;2.90;;;15.40;99.90;;;;;;5041120;28;20200;-59
2023/07/05 02:36:09;;;;;;;5.20;3.33;;;15.30;99.90;;;;;;5024169;28;20229;-59
2023/07/05 02:38:36;;;;;;;4.23;2.73;;;15.20;99.90;;;;;;5043038;28;20520;-59
2023/07/05 02:41:03;;;;;;;2.80;2.20;;;15.20;99.90;;;;;;5041207;28;20238;-59
2023/07/05 02:43:30;;;;;;;2.77;2.30;;;15.00;99.90;;;;;;5037931;28;20204;-59
2023/07/05 02:45:57;;;;;;;3.43;2.40;;;14.90;99.90;;;;;;5041558;28;20197;-57
2023/07/05 02:48:24;;;;;;;2.90;2.40;;;14.90;99.90;;;;;;5040465;28;20291;-58
2023/07/05 02:50:51;;;;;;;5.00;2.50;;;14.70;99.90;;;;;;5041773;28;20734;-59
2023/07/05 02:53:18;;;;;;;4.13;2.20;;;14.80;99.90;;;;;;5038480;28;20657;-59
2023/07/05 02:55:45;;;;;;;4.60;2.67;;;14.70;99.90;;;;;;5045702;28;20221;-61
2023/07/05 02:58:12;;;;;;;2.83;2.53;;;14.60;99.90;;;;;;5042225;28;20229;-59
2023/07/05 03:00:38;;;;;;;4.50;2.50;;;14.60;99.90;;;;;;5042998;28;20609;-60
2023/07/05 03:03:05;;;;;;;4.93;2.50;;;14.70;99.90;;;;;;5041074;28;20205;-59
2023/07/05 03:05:32;;;;;;;4.50;2.77;;;14.60;99.90;;;;;;5027266;28;20203;-59
2023/07/05 03:07:59;;;;;;;4.57;2.70;;;14.60;99.90;;;;;;5044503;28;20211;-59
2023/07/05 03:10:26;;;;;;;4.93;2.30;;;14.60;99.90;;;;;;5026795;28;20726;-59
2023/07/05 03:12:53;;;;;;;4.43;2.57;;;14.50;99.90;;;;;;5040074;28;20205;-59
2023/07/05 03:15:19;;;;;;;4.00;2.20;;;14.60;99.90;;;;;;5042215;28;20210;-59
2023/07/05 03:17:46;;;;;;;4.10;2.33;;;14.60;99.90;;;;;;5041730;28;20221;-59
2023/07/05 03:20:13;;;;;;;3.53;2.37;;;14.50;99.90;;;;;;5045563;28;20290;-60
2023/07/05 03:22:40;;;;;;;3.20;2.53;;;14.50;99.90;;;;;;5043985;28;20768;-58
2023/07/05 03:25:08;;;;;;;5.20;2.37;;;14.50;99.90;;;;;;5026294;28;20206;-59
2023/07/05 03:27:35;;;;;;;4.33;2.40;;;14.40;99.90;;;;;;5043712;28;20337;-59
2023/07/05 03:30:02;;;;;;;5.83;2.83;;;14.50;99.90;;;;;;5020305;28;20206;-59
2023/07/05 03:32:29;;;;;;;3.67;2.60;;;14.40;99.90;;;;;;5044112;28;20613;-59
2023/07/05 03:34:56;;;;;;;4.00;2.60;;;14.40;99.90;;;;;;5040374;28;20207;-58
2023/07/05 03:37:28;;;;;;;5.57;3.00;;;14.40;99.90;;;;;;5043250;28;20241;-59
2023/07/05 03:39:55;;;;;;;4.83;2.80;;;14.30;99.90;;;;;;5043611;28;20651;-59
2023/07/05 03:42:22;;;;;;;5.27;2.63;;;14.30;99.90;;;;;;5042451;28;20920;-59
2023/07/05 03:44:49;;;;;;;7.97;2.90;;;14.20;99.90;;;;;;5042861;28;20202;-59
2023/07/05 03:47:16;;;;;;;4.53;2.40;;;14.20;99.90;;;;;;5043100;28;20704;-62
2023/07/05 03:49:42;;;;;;;4.23;2.30;;;14.30;99.90;;;;;;5044363;28;20287;-60
2023/07/05 03:52:09;;;;;;;10.50;3.17;;;14.20;99.90;;;;;;5045124;28;20637;-59
2023/07/05 03:54:36;;;;;;;5.50;3.30;;;14.20;99.90;;;;;;5045144;28;20212;-59
2023/07/05 03:57:03;;;;;;;4.80;2.97;;;14.30;99.90;;;;;;5045653;28;20297;-58
2023/07/05 03:59:30;;;;;;;5.83;3.13;;;14.30;99.90;;;;;;5046813;28;20718;-57
2023/07/05 04:01:57;;;;;;;7.43;3.13;;;14.40;99.90;;;;;;5045654;28;20258;-58
2023/07/05 04:04:24;;;;;;;6.13;2.90;;;14.30;99.90;;;;;;5025803;28;20234;-57
2023/07/05 04:06:51;;;;;;;6.30;3.60;;;14.40;99.90;;;;;;5043708;28;20198;-58
2023/07/05 04:09:18;;;;;;;4.30;2.83;;;14.40;99.90;;;;;;5036410;28;20242;-58
2023/07/05 04:11:45;;;;;;;5.80;3.20;;;14.50;99.90;;;;;;5029195;28;20665;-57
2023/07/05 04:14:11;;;;;;;4.47;3.00;;;14.40;99.90;;;;;;5028711;28;20200;-58
2023/07/05 04:16:38;;;;;;;6.50;3.10;;;14.40;99.90;;;;;;5026659;28;20233;-57
2023/07/05 04:19:05;;;;;;;8.00;2.93;;;14.40;99.90;;;;;;5030584;28;20784;-58
2023/07/05 04:21:32;;;;;;;6.30;3.27;;;14.40;99.90;;;;;;5041580;28;20198;-58
2023/07/05 04:23:59;;;;;;;7.07;3.50;;;14.40;99.90;;;;;;5044316;28;20248;-57
2023/07/05 04:26:28;;;;;;;5.57;3.17;;;14.40;99.90;;;;;;5045952;28;20248;-58
2023/07/05 04:28:55;;;;;;;6.27;3.47;;;14.30;99.90;;;;;;5046145;28;20214;-58
2023/07/05 04:31:29;;;;;;;6.80;3.23;;;14.40;99.90;;;;;;5032151;28;20609;-57
2023/07/05 04:33:58;;;;;;;6.47;3.37;;;14.50;99.90;;;;;;5048111;28;20805;-60
2023/07/05 04:36:25;;;;;;;6.80;3.20;;;14.50;99.90;;;;;;5047800;28;20241;-59
2023/07/05 04:38:56;;;;;;;4.17;3.10;;;14.50;99.90;;;;;;5046610;28;20732;-59
2023/07/05 04:41:24;;;;;;;4.33;3.50;;;14.50;99.90;;;;;;5043526;28;20717;-59
2023/07/05 04:43:51;;;;;;;6.60;3.93;;;14.60;99.90;;;;;;5043829;28;20221;-59
2023/07/05 04:46:19;;;;;;;5.17;3.30;;;14.50;99.90;;;;;;5028049;28;20200;-59
2023/07/05 04:48:46;;;;;;;5.40;3.40;;;14.40;99.90;;;;;;5027989;28;20213;-59
2023/07/05 04:51:13;;;;;;;7.97;3.40;;;14.30;99.90;;;;;;5042967;28;20215;-60
2023/07/05 04:53:40;;;;;;;5.30;2.73;;;14.30;99.90;;;;;;5036963;28;20214;-59
2023/07/05 04:56:11;;;;;;;5.63;3.50;;;14.20;99.90;;;;;;5024125;28;20217;-60
2023/07/05 04:58:38;;;;;;;5.60;3.30;;;14.20;99.90;;;;;;5041860;28;20304;-59
2023/07/05 05:01:07;;;;;;;6.67;3.13;;;14.30;99.90;;;;;;5042099;28;20205;-60
2023/07/05 05:03:34;;;;;;;4.87;3.30;;;14.20;99.90;;;;;;5041847;28;20223;-62
2023/07/05 05:06:01;;;;;;;8.63;4.17;;;14.20;99.90;;;;;;5039118;28;20210;-59
2023/07/05 05:08:28;;;;;;;9.50;3.60;;;14.30;99.90;;;;;;5044298;28;20592;-60
2023/07/05 05:10:58;;;;;;;4.43;2.93;;;14.20;99.90;;;;;;5046232;28;20295;-59
2023/07/05 05:13:25;;;;;;;5.87;3.37;;;14.20;99.90;;;;;;5038428;28;20685;-59
2023/07/05 05:15:54;;;;;;;6.30;3.50;;;14.30;99.90;;;;;;5039288;28;20206;-59
2023/07/05 05:18:22;;;;;;;5.50;3.13;;;14.30;99.90;;;;;;5020818;28;20277;-59
2023/07/05 05:20:50;;;;;;;5.03;3.00;;;14.30;99.90;;;;;;5022209;28;20205;-60
2023/07/05 05:23:17;;;;;;;5.13;3.57;;;14.20;99.90;;;;;;5040572;28;20235;-59
2023/07/05 05:25:45;;;;;;;6.70;3.53;;;14.20;99.90;;;;;;5042680;28;20682;-61
2023/07/05 05:28:13;;;;;;;4.90;2.97;;;14.20;99.90;;;;;;4679996;28;10000043;-60
2023/07/05 05:30:43;;;;;;;6.30;3.10;;;14.30;99.90;;;;;;5024450;28;23410;-61
2023/07/05 05:33:13;;;;;;;5.53;2.97;;;14.30;99.90;;;;;;5004214;28;20335;-61
2023/07/05 05:35:46;;;;;;;5.37;3.17;;;14.20;99.90;;;;;;5035563;28;20196;-61
2023/07/05 05:38:13;;;;;;;5.63;3.13;;;14.10;99.90;;;;;;5032067;28;20217;-60
2023/07/05 05:40:40;;;;;;;6.33;3.20;;;14.10;99.90;;;;;;5022031;28;20845;-61
2023/07/05 05:43:07;;;;;;;5.50;2.90;;;14.10;99.90;;;;;;5005542;28;20283;-60
2023/07/05 05:45:34;;;;;;;3.67;2.83;;;14.00;99.90;;;;;;5031193;28;20202;-61
2023/07/05 05:48:01;;;;;;;4.03;3.00;;;14.00;99.90;;;;;;5003746;28;20264;-61
2023/07/05 05:50:28;;;;;;;3.67;3.07;;;14.00;99.90;;;;;;5029729;28;20278;-61
2023/07/05 05:52:55;;;;;;;4.87;3.23;;;14.10;99.90;;;;;;5010682;28;20212;-60
2023/07/05 05:55:22;;;;;;;5.67;3.50;;;14.00;99.90;;;;;;5008032;28;20772;-61
2023/07/05 05:57:49;;;;;;;4.57;3.37;;;14.10;99.90;;;;;;5026931;28;20244;-61
2023/07/05 06:00:16;;;;;;;5.70;3.30;;;14.10;99.90;;;;;;5021048;28;20220;-60
2023/07/05 06:02:43;;;;;;;3.93;2.77;;;14.10;99.90;;;;;;5021366;28;20205;-61
2023/07/05 06:05:10;;;;;;;4.40;2.80;;;14.10;99.90;;;;;;5027974;28;20230;-60
2023/07/05 06:07:38;;;;;;;4.77;2.93;;;14.00;99.90;;;;;;5027418;28;20712;-60
2023/07/05 06:10:06;;;;;;;3.90;3.00;;;14.00;99.90;;;;;;5010738;28;20237;-60
2023/07/05 06:12:33;;;;;;;5.83;3.07;;;13.90;99.90;;;;;;5011087;28;20201;-60
2023/07/05 06:14:59;;;;;;;3.13;2.77;;;13.80;99.90;;;;;;5029933;28;20524;-61
2023/07/05 06:17:26;;;;;;;5.37;3.10;;;13.80;99.90;;;;;;5027893;28;20204;-61
2023/07/05 06:19:53;;;;;;;4.67;3.67;;;13.70;99.90;;;;;;5026023;28;20232;-60
2023/07/05 06:22:20;;;;;;;4.17;3.50;;;13.60;99.90;;;;;;5028803;28;20201;-59
2023/07/05 06:24:47;;;;;;;5.40;3.17;;;13.60;99.90;;;;;;5022403;28;20337;-60
2023/07/05 06:27:16;;;;;;;4.23;2.93;;;13.60;99.90;;;;;;5033258;28;20289;-60
2023/07/05 06:29:43;;;;;;;3.20;2.90;;;13.60;99.90;;;;;;5009921;28;21665;-60
2023/07/05 06:32:10;;;;;;;5.93;3.20;;;13.50;99.90;;;;;;5032550;28;20759;-60
2023/07/05 06:34:36;;;;;;;3.47;2.97;;;13.50;99.90;;;;;;5028128;28;20892;-59
2023/07/05 06:37:04;;;;;;;4.30;3.17;;;13.60;99.90;;;;;;5028165;28;20207;-60
2023/07/05 06:39:31;;;;;;;4.00;3.07;;;13.50;99.90;;;;;;5012788;28;20889;-60
2023/07/05 06:41:57;;;;;;;3.27;2.97;;;13.50;99.90;;;;;;5027371;28;20245;-60
2023/07/05 06:44:24;;;;;;;7.13;3.30;;;13.60;99.90;;;;;;5021424;28;20220;-60
2023/07/05 06:46:51;;;;;;;4.60;2.60;;;13.50;99.90;;;;;;5024885;28;20266;-60
2023/07/05 06:49:19;;;;;;;4.73;2.50;;;13.60;99.90;;;;;;5021052;28;20227;-60
2023/07/05 06:51:46;;;;;;;5.80;2.57;;;13.70;99.90;;;;;;5004902;28;20395;-59
2023/07/05 06:54:13;;;;;;;4.60;2.50;;;13.60;99.90;;;;;;5032770;28;20738;-61
2023/07/05 06:56:40;;;;;;;4.97;2.63;;;13.70;99.90;;;;;;5030902;28;20303;-60
2023/07/05 06:59:06;;;;;;;3.93;2.17;;;13.70;99.90;;;;;;5028580;28;20212;-60
2023/07/05 07:01:34;;;;;;;5.00;2.20;;;13.80;99.90;;;;;;5029099;28;20197;-60
2023/07/05 07:04:05;;;;;;;4.30;2.13;;;13.90;99.90;;;;;;5010672;28;20295;-60
2023/07/05 07:06:35;;;;;;;6.90;2.37;;;13.90;99.90;;;;;;5024609;28;22219;-60
2023/07/05 07:09:04;;;;;;;5.77;2.30;;;13.90;99.90;;;;;;5027654;28;20639;-60
2023/07/05 07:11:32;;;;;;;3.60;2.20;;;14.00;99.90;;;;;;5008625;28;21044;-60
2023/07/05 07:13:58;;;;;;;3.17;1.90;;;14.00;99.90;;;;;;5025636;28;20210;-60
2023/07/05 07:16:25;;;;;;;3.40;1.90;;;14.10;99.90;;;;;;5011318;28;20342;-60
2023/07/05 07:18:55;;;;;;;4.50;2.10;;;14.10;99.90;;;;;;4995357;28;20225;-60
2023/07/05 07:21:22;;;;;;;3.13;2.40;;;14.30;99.90;;;;;;5018605;28;20885;-60
2023/07/05 07:23:49;;;;;;;6.97;2.10;;;14.30;99.90;;;;;;5004972;28;20209;-60
2023/07/05 07:26:20;;;;;;;3.50;2.10;;;14.20;99.90;;;;;;5010886;28;20227;-60
2023/07/05 07:28:49;;;;;;;5.30;2.03;;;14.10;99.90;;;;;;5015478;28;20205;-60
2023/07/05 07:31:31;;;;;;;6.63;2.30;;;14.10;99.90;;;;;;5023288;28;20217;-60
2023/07/05 07:34:02;;;;;;;5.83;1.80;;;14.10;99.90;;;;;;5020129;28;20233;-60
2023/07/05 07:36:30;;;;;;;2.43;1.90;;;14.10;99.90;;;;;;5020830;28;20571;-59
2023/07/05 07:38:58;;;;;;;3.77;1.70;;;14.00;99.90;;;;;;5030865;28;20924;-59
2023/07/05 07:41:26;;;;;;;2.37;2.10;;;14.10;99.90;;;;;;5028977;28;20207;-59
2023/07/05 07:44:02;;;;;;;3.03;2.17;;;14.00;99.90;;;;;;5022973;28;20210;-58
2023/07/05 07:46:31;;;;;;;4.87;2.07;;;14.00;99.90;;;;;;5026670;28;20204;-59
2023/07/05 07:49:00;;;;;;;2.63;2.37;;;14.00;99.90;;;;;;5014122;28;20261;-58
2023/07/05 07:51:32;;;;;;;4.03;2.77;;;14.00;99.90;;;;;;5029079;28;22394;-58
2023/07/05 07:54:08;;;;;;;3.97;2.97;;;14.00;99.90;;;;;;5020583;28;20207;-59
2023/07/05 07:56:35;;;;;;;5.33;3.20;;;14.10;99.90;;;;;;5027459;28;20213;-60
2023/07/05 07:59:06;;;;;;;4.23;3.10;;;14.10;99.90;;;;;;5007927;28;20216;-59
2023/07/05 08:01:37;;;;;;;4.80;3.30;;;14.10;99.90;;;;;;5027501;28;20205;-59
2023/07/05 08:04:06;;;;;;;6.93;2.63;;;14.30;99.90;;;;;;5028619;28;20230;-59
2023/07/05 08:06:39;;;;;;;4.03;3.03;;;14.40;99.90;;;;;;5031429;28;20211;-58
2023/07/05 08:09:07;;;;;;;10.03;3.10;;;14.40;99.90;;;;;;5026728;28;20212;-58
2023/07/05 08:11:35;;;;;;;3.47;3.13;;;14.40;99.90;;;;;;5027364;28;21951;-59
2023/07/05 08:14:02;;;;;;;4.40;2.93;;;14.40;99.90;;;;;;5021564;28;20647;-58
2023/07/05 08:16:29;;;;;;;5.37;3.30;;;14.30;99.90;;;;;;5024487;28;20924;-59
2023/07/05 08:18:57;;;;;;;6.27;3.13;;;14.30;99.90;;;;;;5026174;28;21821;-59
2023/07/05 08:21:24;;;;;;;6.27;3.07;;;14.50;99.90;;;;;;5008844;28;20220;-58
2023/07/05 08:23:51;;;;;;;6.23;3.20;;;14.70;99.90;;;;;;5016874;28;20238;-58
2023/07/05 08:26:18;;;;;;;5.80;3.30;;;14.60;99.90;;;;;;5031735;28;20210;-58
2023/07/05 08:28:46;;;;;;;6.40;3.80;;;14.50;99.90;;;;;;5030064;28;20296;-58
2023/07/05 08:31:13;;;;;;;4.30;3.60;;;14.50;99.90;;;;;;5003385;28;21036;-59
2023/07/05 08:33:40;;;;;;;5.47;3.43;;;14.50;99.90;;;;;;5021052;28;20298;-59
2023/07/05 08:36:12;;;;;;;5.53;3.87;;;14.50;99.90;;;;;;5023095;28;20225;-59
2023/07/05 08:38:51;;;;;;;6.93;3.67;;;14.60;99.90;;;;;;4997498;28;20240;-59
2023/07/05 08:41:27;;;;;;;5.33;3.87;;;14.60;99.90;;;;;;5019616;28;20289;-59
2023/07/05 08:44:05;;;;;;;8.63;4.30;;;14.60;99.90;;;;;;5020157;28;20300;-59
2023/07/05 08:46:33;;;;;;;5.57;3.70;;;14.50;99.90;;;;;;5028991;28;20230;-59
2023/07/05 08:49:05;;;;;;;5.10;4.03;;;14.30;99.90;;;;;;5019016;28;20586;-59
2023/07/05 08:51:32;;;;;;;4.73;3.87;;;14.30;99.90;;;;;;5005277;28;20223;-59
2023/07/05 08:54:01;;;;;;;9.17;3.70;;;14.30;99.90;;;;;;5026971;28;20229;-59
2023/07/05 08:56:34;;;;;;;6.90;3.70;;;14.30;99.90;;;;;;5022089;28;20206;-59
2023/07/05 08:59:18;;;;;;;4.70;2.83;;;14.50;99.90;;;;;;4999585;28;20577;-59
2023/07/05 09:01:45;;;;;;;5.73;3.37;;;14.70;99.90;;;;;;5007557;28;20635;-58
2023/07/05 09:04:21;;;;;;;4.80;3.70;;;14.90;99.90;;;;;;5011486;28;20237;-58
2023/07/05 09:07:08;;;;;;;6.03;3.30;;;15.10;99.90;;;;;;5026749;28;20205;-59
2023/07/05 09:10:04;;;;;;;9.43;2.80;;;15.20;99.90;;;;;;5024496;28;20732;-58
2023/07/05 09:12:35;;;;;;;3.83;2.70;;;15.40;99.90;;;;;;5021979;28;20211;-58
2023/07/05 09:15:14;;;;;;;4.00;2.27;;;15.50;99.90;;;;;;5015963;28;20211;-59
2023/07/05 09:17:51;;;;;;;5.40;2.90;;;15.40;99.90;;;;;;5023580;28;20198;-59
2023/07/05 09:21:00;;;;;;;7.03;2.43;;;15.30;99.90;;;;;;5011015;28;20233;-58
2023/07/05 09:23:36;;;;;;;5.13;2.53;;;15.20;99.90;;;;;;5017339;28;20208;-58
2023/07/05 09:26:32;;;;;;;7.30;2.47;;;15.40;99.90;;;;;;5016829;28;20197;-59
2023/07/05 09:29:27;;;;;;;4.60;2.47;;;15.50;99.90;;;;;;4995041;28;21530;-57
2023/07/05 09:31:55;;;;;;;4.93;2.50;;;15.60;99.90;;;;;;5018131;28;20300;-58
2023/07/05 09:34:32;;;;;;;3.07;2.00;;;15.60;99.90;;;;;;5011158;28;20231;-59
2023/07/05 09:37:01;;;;;;;5.03;2.27;;;15.70;99.90;;;;;;5024554;28;20213;-59
2023/07/05 09:39:36;;;;;;;9.77;2.77;;;15.80;99.90;;;;;;5035570;28;20280;-58
2023/07/05 09:42:08;;;;;;;5.63;2.23;;;15.80;99.90;;;;;;5043818;28;20199;-58
2023/07/05 09:44:36;;;;;;;6.37;2.03;;;16.10;99.90;;;;;;5023218;28;20211;-59
2023/07/05 09:47:03;;;;;;;4.40;2.37;;;16.10;99.90;;;;;;5028973;28;20256;-57
2023/07/05 09:49:30;;;;;;;5.27;2.00;;;16.10;99.90;;;;;;5024446;28;20347;-60
2023/07/05 09:51:59;;;;;;;5.37;2.00;;;16.20;99.90;;;;;;5031802;28;20204;-60
2023/07/05 09:54:31;;;;;;;4.87;1.63;;;16.60;99.90;;;;;;5026580;28;21382;-60
2023/07/05 09:57:04;;;;;;;4.73;1.67;;;17.10;99.90;;;;;;5026355;28;20215;-61
2023/07/05 09:59:33;;;;;;;6.20;1.63;;;17.40;99.90;;;;;;5024798;28;20231;-60
2023/07/05 10:02:10;;;;;;;6.23;1.77;;;17.60;99.90;;;;;;5017777;28;20643;-60
2023/07/05 10:04:50;;;;;;;5.57;1.47;;;17.80;99.90;;;;;;5007998;28;20213;-60
2023/07/05 10:07:20;;;;;;;5.10;1.73;;;17.70;99.90;;;;;;5028521;28;21075;-60
2023/07/05 10:09:59;;;;;;;4.93;1.60;;;17.50;99.90;;;;;;5023972;28;20238;-60
2023/07/05 10:12:32;;;;;;;3.30;1.27;;;17.90;99.90;;;;;;5035511;28;20276;-60
2023/07/05 10:14:59;;;;;;;4.13;1.70;;;18.10;99.90;;;;;;5032507;28;20595;-60
2023/07/05 10:17:41;;;;;;;6.63;1.67;;;18.20;99.90;;;;;;5017621;28;20216;-60
2023/07/05 10:20:40;;;;;;;4.03;1.20;;;18.00;99.90;;;;;;5021202;28;20224;-60
2023/07/05 10:23:22;;;;;;;10.37;3.00;;;18.10;99.90;;;;;;5013076;28;20699;-60
2023/07/05 10:25:51;;;;;;;4.03;1.27;;;18.00;99.90;;;;;;5024277;28;20199;-60
2023/07/05 10:28:26;;;;;;;6.70;1.27;;;17.80;99.90;;;;;;5022408;28;20231;-59
2023/07/05 10:31:03;;;;;;;7.83;1.60;;;18.10;99.90;;;;;;5023927;28;20247;-60
2023/07/05 10:33:32;;;;;;;3.47;1.13;;;18.30;99.90;;;;;;5032823;28;20290;-60
2023/07/05 10:36:05;;;;;;;3.50;1.50;;;18.10;99.90;;;;;;5030279;28;20287;-60
2023/07/05 10:38:44;;;;;;;3.47;1.30;;;18.40;99.90;;;;;;5007778;28;20876;-60
2023/07/05 10:41:32;;;;;;;2.30;0.90;;;18.60;99.90;;;;;;5031151;28;20210;-60
2023/07/05 10:44:04;;;;;;;4.90;1.43;;;18.40;99.90;;;;;;5035304;28;20200;-60
2023/07/05 10:46:34;;;;;;;6.60;1.63;;;18.40;99.90;;;;;;5022017;28;20213;-60
2023/07/05 10:49:04;;;;;;;3.47;1.20;;;18.30;99.90;;;;;;5023409;28;20210;-60
2023/07/05 10:51:37;;;;;;;6.10;1.73;;;18.00;99.90;;;;;;5034903;28;20243;-60
2023/07/05 10:54:32;;;;;;;3.73;1.30;;;18.00;99.90;;;;;;5035136;28;20204;-60
2023/07/05 10:57:19;;;;;;;4.47;2.03;;;17.80;99.90;;;;;;5027952;28;20226;-60
2023/07/05 10:59:55;;;;;;;2.40;1.37;;;17.50;99.90;;;;;;5032662;28;20652;-59
2023/07/05 11:02:55;;;;;;;3.47;1.63;;;17.20;99.90;;;;;;5019370;28;20222;-59
2023/07/05 11:05:32;;;;;;;3.90;1.20;;;17.30;99.90;;;;;;4978095;28;20229;-61
2023/07/05 11:08:01;;;;;;;5.60;1.77;;;17.20;99.90;;;;;;5034981;28;20222;-59
2023/07/05 11:10:35;;;;;;;4.17;1.40;;;16.80;99.90;;;;;;5030303;28;20385;-58
2023/07/05 11:13:04;;;;;;;7.07;1.60;;;16.80;99.90;;;;;;5031887;28;21183;-58
2023/07/05 11:15:32;;;;;;;5.10;1.57;;;17.10;99.90;;;;;;5037338;28;20461;-58
2023/07/05 11:17:59;;;;;;;3.50;1.30;;;17.30;99.90;;;;;;5036394;28;20820;-59
2023/07/05 11:20:36;;;;;;;6.67;1.70;;;17.80;99.90;;;;;;5041122;28;20294;-58
2023/07/05 11:23:02;;;;;;;3.20;1.17;;;18.20;99.90;;;;;;5019499;28;20231;-59
2023/07/05 11:25:51;;;;;;;3.97;1.27;;;18.60;99.90;;;;;;5020314;28;20287;-59
2023/07/05 11:28:41;;;;;;;2.13;1.50;;;18.90;99.90;;;;;;5016946;28;20207;-59
2023/07/05 11:31:09;;;;;;;4.60;1.20;;;19.20;99.90;;;;;;5021247;28;20211;-60
2023/07/05 11:33:36;;;;;;;2.60;1.30;;;19.30;99.90;;;;;;5031763;28;20196;-58
2023/07/05 11:36:24;;;;;;;3.10;1.17;;;19.30;99.90;;;;;;5038973;28;20192;-58
2023/07/05 11:38:58;;;;;;;4.87;1.23;;;19.30;99.90;;;;;;5039161;28;20200;-59
2023/07/05 11:41:26;;;;;;;5.00;1.40;;;19.40;99.90;;;;;;5037225;28;20293;-58
2023/07/05 11:44:00;;;;;;;4.63;1.37;;;19.90;99.90;;;;;;5029708;28;20208;-59
2023/07/05 11:46:48;;;;;;;3.10;1.10;;;20.00;99.90;;;;;;5023947;28;20204;-58
2023/07/05 11:49:23;;;;;;;5.17;1.20;;;20.00;99.90;;;;;;5024417;28;20827;-59
2023/07/05 11:51:58;;;;;;;3.57;1.17;;;19.60;99.90;;;;;;5025695;28;20200;-59
2023/07/05 11:54:49;;;;;;;4.53;1.13;;;19.50;99.90;;;;;;5004834;28;20208;-58
2023/07/05 11:57:16;;;;;;;4.20;1.20;;;19.60;99.90;;;;;;5021860;28;20322;-58
2023/07/05 11:59:50;;;;;;;2.07;1.30;;;19.70;99.90;;;;;;5022376;28;20310;-60
2023/07/05 12:02:29;;;;;;;7.40;1.17;;;20.10;99.90;;;;;;5023617;28;21948;-60
2023/07/05 12:05:00;;;;;;;7.17;1.27;;;19.80;99.90;;;;;;5035582;28;20223;-58
2023/07/05 12:07:27;;;;;;;6.43;1.57;;;19.60;99.90;;;;;;5030333;28;21075;-59
2023/07/05 12:09:56;;;;;;;3.67;1.40;;;19.50;99.90;;;;;;5027866;28;20710;-60
2023/07/05 12:12:23;;;;;;;4.03;1.20;;;19.30;99.90;;;;;;5021767;28;20203;-58
2023/07/05 12:14:50;;;;;;;3.47;1.10;;;19.90;99.90;;;;;;5010948;28;20586;-62
2023/07/05 12:17:21;;;;;;;5.83;1.47;;;20.00;99.90;;;;;;5014956;28;20200;-60
2023/07/05 12:19:48;;;;;;;4.30;1.33;;;19.70;99.90;;;;;;5037729;28;20331;-59
2023/07/05 12:22:20;;;;;;;2.60;1.20;;;19.60;99.90;;;;;;5035719;28;20323;-59
2023/07/05 12:24:51;;;;;;;3.27;1.27;;;19.40;99.90;;;;;;5030408;28;20332;-59
2023/07/05 12:27:24;;;;;;;1.93;1.40;;;19.40;99.90;;;;;;5039028;28;20196;-59
2023/07/05 12:29:54;;;;;;;1.77;1.10;;;19.50;99.90;;;;;;5037397;28;20703;-60
2023/07/05 12:32:24;;;;;;;2.90;1.03;;;19.40;99.90;;;;;;5027738;28;20534;-59
2023/07/05 12:35:14;;;;;;;2.47;1.27;;;19.40;99.90;;;;;;5036109;28;20546;-59
2023/07/05 12:37:42;;;;;;;7.47;1.60;;;19.60;99.90;;;;;;5038817;28;20270;-59
2023/07/05 12:40:13;;;;;;;3.43;1.03;;;19.40;99.90;;;;;;5032250;28;20238;-58
2023/07/05 12:42:48;;;;;;;2.77;1.20;;;19.20;99.90;;;;;;5030829;28;20204;-59
2023/07/05 12:45:18;;;;;;;4.33;1.17;;;19.10;99.90;;;;;;5034635;28;20298;-59
2023/07/05 12:47:44;;;;;;;4.00;1.50;;;19.10;99.90;;;;;;5039032;28;20213;-59
2023/07/05 12:50:11;;;;;;;5.97;1.80;;;19.00;99.90;;;;;;5019839;28;20237;-59
2023/07/05 12:52:38;;;;;;;2.47;1.30;;;19.10;99.90;;;;;;5027687;28;20219;-59
2023/07/05 12:55:27;;;;;;;1.97;1.30;;;19.30;99.90;;;;;;5036022;28;20207;-59
2023/07/05 12:57:55;;;;;;;2.67;1.20;;;19.40;99.90;;;;;;5035231;28;20949;-59
2023/07/05 13:00:23;;;;;;;2.90;1.20;;;19.30;99.90;;;;;;5016176;28;20291;-59
2023/07/05 13:02:50;;;;;;;1.87;1.27;;;19.30;99.90;;;;;;5034420;28;20203;-57
2023/07/05 13:05:17;;;;;;;2.87;1.17;;;19.30;99.90;;;;;;5038177;28;20204;-59